Time;durP1;ratioP1;P1;durP2;ratioP2;P2;SDS_P1;SDS_P2;PMS_P1;PMS_P2;Temp;Humidity;BMP_temperature;BMP_pressure;BME280_temperature;BME280_humidity;BME280_pressure;Samples;Min_cycle;Max_cycle;Signal;HPM_P1;HPM_P2
2022/04/12 01:14:50;;;;;;;6.25;2.15;;;7.50;99.90;;;;;;4856115;29;20025;-86
2022/04/12 01:17:34;;;;;;;4.03;1.63;;;7.50;99.90;;;;;;4860204;29;20044;-87
2022/04/12 01:29:58;;;;;;;6.60;2.45;;;7.30;99.90;;;;;;4911436;29;20410;-87
2022/04/12 01:32:29;;;;;;;4.25;1.92;;;7.30;99.90;;;;;;4787756;29;20506;-88
2022/04/12 01:35:51;;;;;;;;;;;;;;;;;;;;;
2022/04/12 01:57:27;;;;;;;5.50;2.50;;;7.00;99.90;;;;;;1465341;27;20131;-86
2022/04/12 02:00:37;;;;;;;5.78;2.22;;;7.00;99.90;;;;;;4959611;28;20033;-86
2022/04/12 02:06:51;;;;;;;4.53;1.90;;;7.00;99.90;;;;;;4903448;29;20024;-88
2022/04/12 02:16:32;;;;;;;4.68;1.88;;;6.90;99.90;;;;;;4906241;23;20651;-87
2022/04/12 02:18:57;;;;;;;4.20;1.95;;;6.90;99.90;;;;;;4897057;29;20061;-86
2022/04/12 02:21:23;;;;;;;5.70;2.22;;;6.90;99.90;;;;;;4898434;29;20020;-86
2022/04/12 02:23:48;;;;;;;4.25;2.05;;;6.90;99.90;;;;;;4901191;29;20020;-86
2022/04/12 02:26:14;;;;;;;5.15;1.80;;;6.80;99.90;;;;;;4895084;29;20032;-86
2022/04/12 02:28:40;;;;;;;4.85;2.28;;;6.80;99.90;;;;;;4893363;29;20051;-86
2022/04/12 02:31:05;;;;;;;5.18;2.03;;;6.80;99.90;;;;;;4900622;29;20036;-86
2022/04/12 02:33:31;;;;;;;6.60;3.05;;;6.80;99.90;;;;;;4892844;29;20029;-87
2022/04/12 02:35:56;;;;;;;4.88;1.92;;;6.80;99.90;;;;;;4890962;29;20032;-85
2022/04/12 02:38:24;;;;;;;6.80;2.35;;;6.70;99.90;;;;;;4894083;29;20025;-87
2022/04/12 02:40:50;;;;;;;4.90;2.17;;;6.70;99.90;;;;;;4897016;29;20126;-87
2022/04/12 02:43:15;;;;;;;4.45;2.17;;;6.70;99.90;;;;;;4899329;29;20051;-87
2022/04/12 02:45:41;;;;;;;4.45;2.13;;;6.70;99.90;;;;;;4898649;29;20029;-87
2022/04/12 02:48:08;;;;;;;4.57;1.77;;;6.60;99.90;;;;;;4902936;29;20417;-87
2022/04/12 02:50:34;;;;;;;4.13;1.70;;;6.70;99.90;;;;;;4894159;29;20021;-87
2022/04/12 02:53:05;;;;;;;4.53;2.00;;;6.70;99.90;;;;;;4898268;29;20107;-87
2022/04/12 02:55:31;;;;;;;5.32;2.20;;;6.60;99.90;;;;;;4904412;29;20025;-87
2022/04/12 02:57:56;;;;;;;4.82;2.28;;;6.50;99.90;;;;;;4896824;29;20199;-88
2022/04/12 03:00:22;;;;;;;7.03;2.10;;;6.50;99.90;;;;;;4893399;29;20024;-87
2022/04/12 03:02:47;;;;;;;4.38;1.80;;;6.50;99.90;;;;;;4897650;29;20028;-87
2022/04/12 03:05:13;;;;;;;4.78;2.28;;;6.50;99.90;;;;;;4889781;29;20032;-87
2022/04/12 03:07:39;;;;;;;5.20;1.92;;;6.40;99.90;;;;;;4902371;29;20020;-87
2022/04/12 03:10:05;;;;;;;4.15;2.40;;;6.40;99.90;;;;;;4911554;29;20088;-87
2022/04/12 03:12:30;;;;;;;6.60;1.95;;;6.40;99.90;;;;;;4914837;29;20021;-86
2022/04/12 03:14:56;;;;;;;4.70;2.13;;;6.50;99.90;;;;;;4895906;29;20041;-88
2022/04/12 03:17:22;;;;;;;4.35;1.90;;;6.30;99.90;;;;;;4893324;29;20044;-87
2022/04/12 03:19:47;;;;;;;4.28;1.73;;;6.40;99.90;;;;;;4894481;29;20052;-86
2022/04/12 03:22:13;;;;;;;3.53;1.40;;;6.40;99.90;;;;;;4901675;29;20033;-86
2022/04/12 03:24:39;;;;;;;4.75;1.95;;;6.50;99.90;;;;;;4895183;29;20032;-87
2022/04/12 03:27:05;;;;;;;5.22;2.00;;;6.30;99.90;;;;;;4901249;29;20044;-86
2022/04/12 03:29:33;;;;;;;4.03;1.70;;;6.30;99.90;;;;;;4891601;29;20024;-87
2022/04/12 03:32:00;;;;;;;4.40;1.90;;;6.30;99.90;;;;;;4884687;29;20630;-87
2022/04/12 03:34:25;;;;;;;4.87;2.00;;;6.30;99.90;;;;;;4876141;29;20033;-88
2022/04/12 03:36:51;;;;;;;5.20;1.97;;;6.30;99.90;;;;;;4890844;29;20124;-85
2022/04/12 03:39:19;;;;;;;4.80;2.05;;;6.30;99.90;;;;;;4873992;29;20120;-86
2022/04/12 03:41:46;;;;;;;5.97;2.00;;;6.30;99.90;;;;;;4876285;29;20044;-87
2022/04/12 03:44:13;;;;;;;3.85;1.95;;;6.20;99.90;;;;;;4874665;29;20036;-86
2022/04/12 03:46:39;;;;;;;5.77;2.17;;;6.50;99.90;;;;;;4877358;29;20477;-87
2022/04/12 03:49:04;;;;;;;4.80;2.00;;;6.20;99.90;;;;;;4878425;29;20068;-86
2022/04/12 03:51:30;;;;;;;5.03;1.97;;;6.20;99.90;;;;;;4894972;29;20044;-87
2022/04/12 03:53:56;;;;;;;5.57;1.93;;;6.20;99.90;;;;;;4880390;29;20029;-87
2022/04/12 03:56:22;;;;;;;4.87;1.90;;;6.40;99.90;;;;;;4880707;29;20487;-87
2022/04/12 03:58:47;;;;;;;3.30;1.73;;;6.20;99.90;;;;;;4885769;29;20101;-86
2022/04/12 04:01:15;;;;;;;5.50;2.20;;;6.40;99.90;;;;;;4893540;29;20033;-85
2022/04/12 04:03:41;;;;;;;3.70;1.83;;;6.20;99.90;;;;;;4895819;29;20503;-87
2022/04/12 04:06:07;;;;;;;4.25;2.17;;;6.20;99.90;;;;;;4929741;29;20035;-86
2022/04/12 04:08:32;;;;;;;4.00;1.83;;;6.10;99.90;;;;;;4930930;29;20059;-86
2022/04/12 04:10:58;;;;;;;6.37;2.33;;;6.10;99.90;;;;;;4916462;29;20060;-87
2022/04/12 04:13:29;;;;;;;4.35;2.40;;;6.10;99.90;;;;;;4890657;29;20022;-86
2022/04/12 04:15:56;;;;;;;3.73;1.80;;;6.10;99.90;;;;;;4888455;29;20040;-86
2022/04/12 04:18:22;;;;;;;4.03;1.90;;;6.10;99.90;;;;;;4884536;29;20029;-87
2022/04/12 04:20:48;;;;;;;4.87;2.03;;;6.10;99.90;;;;;;4895497;29;20032;-87
2022/04/12 04:23:13;;;;;;;7.68;2.13;;;6.10;99.90;;;;;;4888513;29;20025;-88
2022/04/12 04:25:39;;;;;;;5.47;2.20;;;6.20;99.90;;;;;;4885064;29;20036;-87
2022/04/12 04:28:10;;;;;;;6.27;2.37;;;6.00;99.90;;;;;;4884225;29;20119;-88
2022/04/12 04:30:44;;;;;;;4.73;2.43;;;6.00;99.90;;;;;;4906676;29;20108;-87
2022/04/12 04:33:10;;;;;;;4.80;2.37;;;6.30;99.90;;;;;;4894826;29;20021;-88
2022/04/12 04:35:36;;;;;;;4.43;1.97;;;6.00;99.90;;;;;;4889906;29;20040;-87
2022/04/12 04:38:02;;;;;;;4.57;2.42;;;6.00;99.90;;;;;;4890398;29;20029;-87
2022/04/12 04:40:27;;;;;;;4.23;1.70;;;6.10;99.90;;;;;;4886658;29;20112;-87
2022/04/12 04:42:53;;;;;;;4.63;2.30;;;6.10;99.90;;;;;;4893329;29;20024;-87
2022/04/12 04:45:19;;;;;;;4.50;1.60;;;5.90;99.90;;;;;;4883292;29;20401;-87
2022/04/12 04:47:49;;;;;;;4.40;1.90;;;5.90;99.90;;;;;;4877012;29;20037;-87
2022/04/12 04:50:16;;;;;;;6.23;2.30;;;5.90;99.90;;;;;;4891447;29;20036;-87
2022/04/12 04:52:41;;;;;;;5.63;2.47;;;5.90;99.90;;;;;;4891631;29;20407;-87
2022/04/12 04:55:08;;;;;;;4.40;2.07;;;5.90;99.90;;;;;;4900736;29;20048;-87
2022/04/12 04:57:38;;;;;;;5.73;2.10;;;5.90;99.90;;;;;;4894124;29;20045;-86
2022/04/12 05:00:09;;;;;;;4.33;2.20;;;5.90;99.90;;;;;;4905921;29;20052;-86
2022/04/12 05:02:35;;;;;;;4.93;2.37;;;6.00;99.90;;;;;;4898877;29;20118;-86
2022/04/12 05:05:04;;;;;;;4.60;2.20;;;6.00;99.90;;;;;;4894871;29;20045;-88
2022/04/12 05:07:30;;;;;;;5.77;2.47;;;6.00;99.90;;;;;;4888999;29;20704;-87
2022/04/12 05:09:56;;;;;;;4.87;2.17;;;6.10;99.90;;;;;;4892281;29;20052;-87
2022/04/12 05:12:21;;;;;;;4.77;2.07;;;6.20;99.90;;;;;;4897701;29;20032;-87
2022/04/12 05:14:47;;;;;;;5.03;2.47;;;6.10;99.90;;;;;;4892992;29;20120;-88
2022/04/12 05:17:14;;;;;;;4.73;2.37;;;6.10;99.90;;;;;;4893931;29;20045;-88
2022/04/12 05:19:40;;;;;;;5.53;1.93;;;6.20;99.90;;;;;;4891271;29;20063;-88
2022/04/12 05:22:06;;;;;;;5.90;2.40;;;6.10;99.90;;;;;;4893794;29;20055;-87
2022/04/12 05:24:31;;;;;;;4.75;2.13;;;6.20;99.90;;;;;;4879856;29;20041;-86
2022/04/12 05:26:57;;;;;;;5.13;2.40;;;6.20;99.90;;;;;;4879464;29;20025;-88
2022/04/12 05:29:22;;;;;;;4.53;2.23;;;6.20;99.90;;;;;;4885281;29;20136;-86
2022/04/12 05:31:48;;;;;;;5.83;2.30;;;6.30;99.90;;;;;;4888249;29;20053;-86
2022/04/12 05:34:13;;;;;;;3.03;1.60;;;6.30;99.90;;;;;;4893083;29;20032;-87
2022/04/12 05:36:39;;;;;;;9.87;2.70;;;6.30;99.90;;;;;;4896126;29;20032;-89
2022/04/12 05:39:05;;;;;;;5.32;2.38;;;6.40;99.90;;;;;;4892920;29;20048;-87
2022/04/12 05:41:33;;;;;;;5.37;2.23;;;6.50;99.90;;;;;;4890451;29;20036;-88
2022/04/12 05:43:58;;;;;;;5.57;1.97;;;6.60;99.90;;;;;;4892443;29;20028;-88
2022/04/12 05:46:24;;;;;;;5.05;2.13;;;6.60;99.90;;;;;;4892463;29;20036;-87
2022/04/12 05:48:55;;;;;;;5.55;2.50;;;6.70;99.90;;;;;;4892311;29;20055;-88
2022/04/12 05:51:20;;;;;;;5.23;2.17;;;6.80;99.90;;;;;;4887896;29;20029;-88
2022/04/12 05:53:46;;;;;;;5.25;2.13;;;6.90;99.90;;;;;;4891524;29;20033;-87
2022/04/12 05:56:19;;;;;;;4.78;2.08;;;7.00;99.90;;;;;;4894742;29;20080;-87
2022/04/12 05:58:44;;;;;;;5.25;2.58;;;7.10;99.90;;;;;;4894803;29;20629;-86
2022/04/12 06:01:10;;;;;;;4.77;1.97;;;7.20;99.90;;;;;;4895278;29;20020;-87
2022/04/12 06:03:36;;;;;;;6.45;2.40;;;7.10;99.90;;;;;;4890900;29;20028;-86
2022/04/12 06:06:01;;;;;;;5.30;2.37;;;7.10;99.90;;;;;;4893959;29;20096;-86
2022/04/12 06:08:28;;;;;;;5.27;2.57;;;7.30;99.90;;;;;;4891656;29;20033;-85
2022/04/12 06:10:54;;;;;;;4.40;2.00;;;7.30;99.90;;;;;;4892386;29;20053;-86
2022/04/12 06:13:19;;;;;;;4.75;2.70;;;7.40;99.90;;;;;;4893883;29;20590;-87
2022/04/12 06:15:45;;;;;;;5.47;2.05;;;7.60;99.90;;;;;;4890418;29;20033;-86
2022/04/12 06:18:11;;;;;;;4.55;2.15;;;7.80;99.90;;;;;;4894516;29;20112;-86
2022/04/12 06:20:37;;;;;;;5.47;2.17;;;7.90;99.90;;;;;;4893742;29;20029;-87
2022/04/12 06:23:05;;;;;;;5.50;2.33;;;8.10;99.90;;;;;;4894681;29;20021;-85
2022/04/12 06:25:31;;;;;;;5.07;1.90;;;8.20;99.90;;;;;;4897166;29;20024;-83
2022/04/12 06:27:57;;;;;;;5.13;2.13;;;8.30;99.90;;;;;;4890914;29;20036;-85
2022/04/12 06:30:30;;;;;;;4.85;1.95;;;8.30;99.90;;;;;;4890212;29;20099;-86
2022/04/12 06:32:56;;;;;;;6.43;2.17;;;8.30;99.90;;;;;;4897573;29;20080;-85
2022/04/12 06:35:25;;;;;;;5.47;2.15;;;8.40;99.90;;;;;;4892111;29;20049;-85
2022/04/12 06:37:53;;;;;;;4.50;1.80;;;8.40;99.90;;;;;;4895066;29;20107;-86
2022/04/12 06:40:19;;;;;;;7.07;2.10;;;8.50;99.90;;;;;;4896771;29;20076;-87
2022/04/12 06:42:46;;;;;;;4.78;2.22;;;8.60;99.90;;;;;;4896779;29;20037;-85
2022/04/12 06:45:12;;;;;;;5.03;2.00;;;8.90;99.90;;;;;;4894194;29;20028;-86
2022/04/12 06:47:38;;;;;;;4.68;2.13;;;8.70;99.90;;;;;;4890552;29;20032;-87
2022/04/12 06:50:05;;;;;;;4.22;1.95;;;8.80;99.90;;;;;;4892859;29;20092;-86
2022/04/12 06:52:30;;;;;;;4.55;1.98;;;8.90;99.90;;;;;;4888107;29;20372;-86
2022/04/12 06:54:56;;;;;;;3.83;2.03;;;9.00;99.90;;;;;;4892006;29;20025;-86
2022/04/12 06:57:22;;;;;;;4.50;2.17;;;9.10;99.90;;;;;;4896013;29;20025;-88
2022/04/12 06:59:50;;;;;;;5.32;2.22;;;9.40;99.90;;;;;;4886862;29;20025;-87
2022/04/12 07:02:15;;;;;;;4.47;2.33;;;9.50;99.90;;;;;;4892612;29;20033;-87
2022/04/12 07:04:41;;;;;;;6.70;1.88;;;9.60;99.90;;;;;;4899442;29;20037;-88
2022/04/12 07:07:07;;;;;;;6.75;2.35;;;9.70;99.90;;;;;;4889528;29;20391;-88
2022/04/12 07:09:36;;;;;;;5.30;1.92;;;9.80;99.90;;;;;;4903384;29;20031;-88
2022/04/12 07:12:13;;;;;;;5.80;1.98;;;10.00;99.90;;;;;;4898429;29;20226;-87
2022/04/12 07:14:42;;;;;;;5.60;2.40;;;10.00;99.90;;;;;;4917919;29;20064;-88
2022/04/12 07:17:17;;;;;;;4.85;2.00;;;10.10;99.90;;;;;;4916631;29;20129;-88
2022/04/12 07:19:52;;;;;;;4.82;2.67;;;10.30;99.90;;;;;;4915363;29;20028;-87
2022/04/12 07:22:35;;;;;;;5.13;2.58;;;10.00;99.90;;;;;;4896147;29;20028;-87
2022/04/12 07:25:03;;;;;;;;;;;10.10;99.90;;;;;;4896599;29;20033;-86
2022/04/12 07:27:33;;;;;;;4.10;1.90;;;10.00;99.90;;;;;;4892767;29;19919;-87
2022/04/12 07:29:59;;;;;;;5.22;2.10;;;10.10;99.90;;;;;;4877449;29;20642;-86
2022/04/12 07:32:29;;;;;;;5.15;2.20;;;10.20;99.90;;;;;;4877364;29;20029;-87
2022/04/12 07:34:57;;;;;;;5.13;1.95;;;10.30;99.90;;;;;;4878847;29;20029;-87
2022/04/12 07:37:24;;;;;;;4.93;2.33;;;10.40;99.90;;;;;;4890706;29;20460;-87
2022/04/12 07:40:20;;;;;;;;;;;;;;;;;;;;;
2022/04/12 07:42:49;;;;;;;4.78;2.15;;;10.30;99.90;;;;;;4879189;29;20036;-89
2022/04/12 07:45:19;;;;;;;4.22;2.03;;;10.40;99.90;;;;;;4886161;29;20049;-88
2022/04/12 07:47:51;;;;;;;5.03;2.33;;;10.40;99.90;;;;;;4878251;29;20041;-87
2022/04/12 07:50:19;;;;;;;5.20;2.03;;;11.10;99.90;;;;;;4877801;29;20033;-88
2022/04/12 07:52:56;;;;;;;4.38;1.80;;;10.70;99.90;;;;;;4877689;29;20033;-88
2022/04/12 07:55:37;;;;;;;4.95;2.38;;;11.00;99.90;;;;;;4891024;29;20483;-88
2022/04/12 07:58:02;;;;;;;3.00;1.70;;;11.00;99.90;;;;;;4895362;29;20330;-87
2022/04/12 08:00:51;;;;;;;5.07;2.17;;;11.20;99.90;;;;;;4895576;29;20050;-88
2022/04/12 08:03:43;;;;;;;4.30;2.05;;;11.20;99.90;;;;;;4892564;29;20124;-88
2022/04/12 08:06:11;;;;;;;5.75;2.40;;;11.30;99.90;;;;;;4837351;29;20524;-89
2022/04/12 08:08:44;;;;;;;4.10;1.88;;;11.50;99.90;;;;;;4900438;29;20032;-89
2022/04/12 08:11:13;;;;;;;4.93;1.77;;;12.20;99.90;;;;;;4894099;29;20021;-90
2022/04/12 08:13:40;;;;;;;4.57;1.50;;;12.00;99.90;;;;;;4886913;29;20025;-90
2022/04/12 08:16:17;;;;;;;3.67;1.85;;;12.10;99.90;;;;;;4894010;29;20104;-89
2022/04/12 08:18:56;;;;;;;6.60;2.15;;;12.20;99.90;;;;;;4893322;29;20545;-88
2022/04/12 08:21:37;;;;;;;5.55;1.95;;;12.40;99.90;;;;;;4889547;29;20035;-88
2022/04/12 08:24:24;;;;;;;4.78;1.92;;;12.50;99.90;;;;;;4895674;29;20028;-88
2022/04/12 08:26:56;;;;;;;6.55;2.63;;;12.70;99.90;;;;;;4896597;29;20083;-88
2022/04/12 08:29:40;;;;;;;4.85;2.17;;;12.80;99.90;;;;;;4895612;29;20042;-88
2022/04/12 08:32:16;;;;;;;4.60;1.85;;;13.10;99.90;;;;;;4895532;29;20036;-89
2022/04/12 08:34:53;;;;;;;6.47;2.15;;;13.20;99.90;;;;;;4897017;29;20035;-89
2022/04/12 08:37:21;;;;;;;5.55;1.70;;;13.30;99.90;;;;;;4895675;29;20033;-88
2022/04/12 08:40:12;;;;;;;;;;;;;;;;;;;;;
2022/04/12 08:43:01;;;;;;;5.07;1.50;;;13.40;99.90;;;;;;4889950;29;20037;-89
2022/04/12 08:45:51;;;;;;;3.20;1.40;;;13.60;99.90;;;;;;4891108;29;20507;-88
2022/04/12 08:48:19;;;;;;;3.70;1.65;;;14.00;99.90;;;;;;4888388;29;20141;-89
2022/04/12 08:50:56;;;;;;;3.97;1.50;;;14.10;99.80;;;;;;4903348;29;20025;-89
2022/04/12 08:53:23;;;;;;;4.30;1.60;;;14.40;99.90;;;;;;4880405;29;20068;-88
2022/04/12 08:55:49;;;;;;;3.85;1.40;;;14.50;98.00;;;;;;4893082;29;20500;-88
2022/04/12 08:58:32;;;;;;;2.70;1.10;;;14.50;98.50;;;;;;4891067;29;20029;-88
2022/04/12 09:01:03;;;;;;;3.97;1.55;;;14.90;98.10;;;;;;4894246;29;20020;-90
2022/04/12 09:03:34;;;;;;;2.75;1.30;;;15.00;97.80;;;;;;4896182;29;20037;-88
2022/04/12 09:06:02;;;;;;;4.40;0.93;;;15.20;96.70;;;;;;4907120;29;20073;-89
2022/04/12 09:08:46;;;;;;;;;;;;;;;;;;;;;
2022/04/12 09:11:18;;;;;;;2.35;1.00;;;15.60;95.50;;;;;;4892495;29;20091;-89
2022/04/12 09:14:19;;;;;;;2.63;0.95;;;15.70;95.00;;;;;;4892185;29;20037;-90
2022/04/12 09:16:46;;;;;;;4.07;1.23;;;15.80;95.30;;;;;;4845490;29;20049;-90
2022/04/12 09:19:12;;;;;;;2.90;1.25;;;16.00;94.90;;;;;;4873224;29;20049;-89
2022/04/12 09:21:46;;;;;;;3.00;1.05;;;15.80;94.50;;;;;;4891775;29;20036;-89
2022/04/12 09:24:23;;;;;;;3.38;0.82;;;15.80;94.30;;;;;;4893188;29;20231;-89
2022/04/12 09:27:00;;;;;;;3.78;1.17;;;16.00;93.60;;;;;;4886351;29;20033;-88
2022/04/12 09:29:31;;;;;;;3.13;0.93;;;16.00;93.50;;;;;;4908058;29;20120;-88
2022/04/12 09:31:59;;;;;;;2.20;1.05;;;16.20;93.40;;;;;;4894273;29;20032;-88
2022/04/12 09:34:30;;;;;;;4.13;1.05;;;16.40;92.90;;;;;;4891313;29;20124;-89
2022/04/12 09:36:55;;;;;;;2.60;0.80;;;16.70;92.50;;;;;;4877331;29;20036;-88
2022/04/12 09:39:39;;;;;;;2.22;0.70;;;17.10;90.90;;;;;;4876825;29;20021;-89
2022/04/12 09:45:34;;;;;;;3.60;1.27;;;17.40;89.20;;;;;;4892579;29;20468;-89
2022/04/12 09:48:08;;;;;;;2.58;1.23;;;17.80;90.80;;;;;;4858719;29;20033;-89
2022/04/12 09:50:39;;;;;;;4.15;1.30;;;18.00;91.20;;;;;;4882955;29;20538;-88
2022/04/12 09:53:06;;;;;;;6.93;1.70;;;18.20;91.40;;;;;;4892724;29;20029;-89
2022/04/12 09:55:43;;;;;;;2.78;1.10;;;18.30;90.90;;;;;;4892444;29;20438;-89
2022/04/12 09:58:17;;;;;;;2.55;1.00;;;18.20;89.70;;;;;;4884004;29;20425;-90
2022/04/12 10:00:47;;;;;;;2.92;1.27;;;18.50;85.30;;;;;;4889163;29;20060;-90
2022/04/12 10:03:18;;;;;;;3.90;1.45;;;18.80;89.40;;;;;;4895839;29;20056;-89
2022/04/12 10:05:47;;;;;;;2.53;1.10;;;19.00;87.60;;;;;;4894182;29;20032;-90
2022/04/12 10:08:27;;;;;;;2.60;0.88;;;19.20;87.10;;;;;;4895029;29;20104;-90
2022/04/12 10:11:16;;;;;;;2.90;1.17;;;19.40;84.30;;;;;;4889889;29;20495;-89
2022/04/12 10:13:42;;;;;;;2.88;1.27;;;19.40;83.50;;;;;;4889831;29;20499;-90
2022/04/12 10:16:39;;;;;;;3.00;1.08;;;19.40;82.90;;;;;;4895275;29;20075;-88
2022/04/12 10:19:13;;;;;;;3.10;1.15;;;19.60;84.30;;;;;;4894331;29;20053;-89
2022/04/12 10:21:39;;;;;;;4.38;1.50;;;19.70;84.60;;;;;;4894223;29;20021;-88
2022/04/12 10:24:13;;;;;;;2.63;1.10;;;19.70;84.40;;;;;;4898979;29;20714;-90
2022/04/12 10:26:43;;;;;;;4.28;1.80;;;19.60;82.70;;;;;;4901410;29;20571;-88
2022/04/12 10:29:16;;;;;;;3.88;1.25;;;19.60;82.90;;;;;;4883145;29;20053;-89
2022/04/12 10:32:02;;;;;;;2.97;1.40;;;19.60;82.30;;;;;;4900276;29;20029;-89
2022/04/12 10:37:22;;;;;;;4.40;1.40;;;19.70;81.80;;;;;;3270822;27;20135;-86
2022/04/12 10:39:53;;;;;;;3.13;1.30;;;19.60;81.20;;;;;;4897007;29;20025;-86
2022/04/12 10:42:24;;;;;;;1.93;0.80;;;19.40;80.90;;;;;;4896677;29;20506;-87
2022/04/12 10:44:56;;;;;;;2.70;0.90;;;19.70;79.80;;;;;;4893979;29;20526;-86
2022/04/12 10:47:22;;;;;;;2.72;1.10;;;19.90;80.40;;;;;;4875456;29;20032;-86
2022/04/12 10:50:14;;;;;;;2.70;0.93;;;20.00;79.60;;;;;;4897820;29;20139;-86
2022/04/12 10:52:45;;;;;;;1.88;0.85;;;20.20;78.70;;;;;;4889700;29;20029;-86
2022/04/12 10:55:16;;;;;;;2.83;0.85;;;20.30;79.10;;;;;;4879640;29;20123;-86
2022/04/12 10:57:43;;;;;;;2.33;1.00;;;20.50;78.80;;;;;;4875998;29;20029;-86
2022/04/12 11:00:17;;;;;;;2.92;0.77;;;20.60;75.70;;;;;;4900300;29;20028;-86
2022/04/12 11:02:59;;;;;;;2.45;0.90;;;20.60;77.80;;;;;;4883668;29;20114;-86
2022/04/12 11:05:31;;;;;;;1.60;0.60;;;20.70;76.40;;;;;;4897875;29;20029;-87
2022/04/12 11:07:56;;;;;;;2.78;0.60;;;21.00;76.60;;;;;;4896156;29;20029;-87
2022/04/12 11:10:37;;;;;;;2.10;0.70;;;21.10;73.60;;;;;;4883937;29;20050;-87
2022/04/12 11:13:07;;;;;;;1.63;0.68;;;21.10;72.50;;;;;;4901920;29;20072;-87
2022/04/12 11:15:34;;;;;;;2.28;0.90;;;21.30;71.10;;;;;;4897652;29;20035;-87
2022/04/12 11:18:27;;;;;;;3.60;0.68;;;21.30;71.40;;;;;;4897519;29;20380;-87
2022/04/12 11:21:03;;;;;;;1.60;0.55;;;21.60;72.30;;;;;;4884404;29;20032;-87
2022/04/12 11:24:20;;;;;;;1.15;0.57;;;21.80;71.50;;;;;;4882149;29;20032;-87
2022/04/12 11:27:33;;;;;;;;;;;;;;;;;;;;;
2022/04/12 11:29:59;;;;;;;1.70;0.60;;;21.60;70.30;;;;;;4891983;29;20044;-87
2022/04/12 11:32:28;;;;;;;2.05;0.50;;;21.50;69.90;;;;;;4901532;29;20069;-86
2022/04/12 11:34:59;;;;;;;2.13;0.63;;;21.50;69.60;;;;;;4900673;29;20383;-87
2022/04/12 11:37:32;;;;;;;;;;;21.60;70.40;;;;;;4899285;29;20068;-87
2022/04/12 11:39:58;;;;;;;1.70;0.43;;;21.70;70.40;;;;;;4902757;29;20100;-87
2022/04/12 11:42:24;;;;;;;1.95;0.47;;;21.60;69.90;;;;;;4898299;29;20056;-87
2022/04/12 11:45:17;;;;;;;1.63;0.57;;;21.60;69.40;;;;;;4898418;29;20040;-87
2022/04/12 11:47:46;;;;;;;2.15;0.60;;;21.60;69.50;;;;;;4862754;29;20524;-87
2022/04/12 11:50:16;;;;;;;2.03;0.60;;;21.50;70.60;;;;;;4885261;29;20401;-87
2022/04/12 11:52:44;;;;;;;3.00;0.50;;;21.40;69.50;;;;;;4881847;29;20040;-86
2022/04/12 11:55:09;;;;;;;1.35;0.65;;;21.50;69.80;;;;;;4897626;29;20024;-87
2022/04/12 11:57:35;;;;;;;2.55;0.57;;;21.60;69.70;;;;;;4880080;29;20047;-87
2022/04/12 12:00:01;;;;;;;1.33;0.50;;;21.40;69.20;;;;;;4897153;29;20032;-87
2022/04/12 12:02:34;;;;;;;1.02;0.40;;;21.40;70.20;;;;;;4881170;29;20052;-87
2022/04/12 12:05:06;;;;;;;1.45;0.40;;;21.40;71.00;;;;;;4882748;29;20384;-87
2022/04/12 12:07:58;;;;;;;1.60;0.50;;;21.50;70.80;;;;;;4882220;29;20028;-87
2022/04/12 12:10:24;;;;;;;1.45;0.45;;;21.70;70.90;;;;;;4897044;29;20057;-87
2022/04/12 12:13:04;;;;;;;2.05;0.50;;;21.70;70.20;;;;;;4874420;29;20025;-87
2022/04/12 12:15:33;;;;;;;0.95;0.30;;;21.80;69.70;;;;;;4883822;29;20095;-87
2022/04/12 12:18:06;;;;;;;2.05;0.60;;;21.80;69.30;;;;;;4883284;29;20119;-87
2022/04/12 12:20:52;;;;;;;0.88;0.30;;;21.80;70.20;;;;;;4879664;29;20029;-87
2022/04/12 12:23:20;;;;;;;1.52;0.40;;;22.10;70.40;;;;;;4881319;29;20040;-85
2022/04/12 12:25:51;;;;;;;1.00;0.40;;;22.10;69.60;;;;;;4895202;29;20092;-85
2022/04/12 12:28:22;;;;;;;2.85;0.45;;;22.30;70.10;;;;;;4887831;29;20036;-86
2022/04/12 12:31:10;;;;;;;0.52;0.30;;;22.50;69.40;;;;;;4878923;29;20025;-85
2022/04/12 12:33:43;;;;;;;1.40;0.40;;;22.60;69.00;;;;;;4876771;29;20214;-85
2022/04/12 12:36:39;;;;;;;0.95;0.30;;;22.50;66.70;;;;;;4883525;29;20495;-85
2022/04/12 12:39:08;;;;;;;0.40;0.20;;;22.50;67.20;;;;;;4886709;29;20566;-85
2022/04/12 12:41:36;;;;;;;1.05;0.35;;;22.60;67.60;;;;;;4895691;29;20025;-85
2022/04/12 12:44:09;;;;;;;1.23;0.55;;;22.50;66.50;;;;;;4868014;29;20032;-85
2022/04/12 12:46:38;;;;;;;0.63;0.20;;;22.60;66.30;;;;;;4870303;29;20096;-85
2022/04/12 12:49:11;;;;;;;1.27;0.55;;;22.60;66.80;;;;;;4889927;29;20088;-85
2022/04/12 12:51:49;;;;;;;0.80;0.30;;;22.50;67.10;;;;;;4875866;29;20088;-85
2022/04/12 12:54:17;;;;;;;1.73;0.40;;;22.40;65.00;;;;;;4889820;29;20045;-86
2022/04/12 12:56:50;;;;;;;1.88;0.57;;;22.40;64.60;;;;;;4864729;29;20029;-86
2022/04/12 12:59:18;;;;;;;1.30;0.30;;;22.40;65.50;;;;;;4878521;29;20021;-86
2022/04/12 13:01:49;;;;;;;1.42;0.30;;;22.50;66.40;;;;;;4864866;29;20029;-85
2022/04/12 13:04:31;;;;;;;0.70;0.20;;;22.50;65.40;;;;;;4881478;29;20108;-86
2022/04/12 13:07:00;;;;;;;0.45;0.20;;;22.30;64.10;;;;;;4868434;29;20067;-85
2022/04/12 13:09:26;;;;;;;2.75;0.40;;;22.30;65.00;;;;;;4879383;29;20638;-86
2022/04/12 13:11:57;;;;;;;0.40;0.10;;;22.30;65.50;;;;;;4884436;29;20065;-85
2022/04/12 13:14:23;;;;;;;0.73;0.20;;;22.30;65.10;;;;;;4882639;29;20029;-85
2022/04/12 13:16:51;;;;;;;0.82;0.22;;;22.30;65.20;;;;;;4893333;29;20056;-84
2022/04/12 13:19:25;;;;;;;1.38;0.40;;;22.40;63.30;;;;;;4894127;29;20076;-84
2022/04/12 13:21:50;;;;;;;1.17;0.30;;;22.50;65.40;;;;;;4882456;29;20059;-85
2022/04/12 13:24:19;;;;;;;1.70;0.20;;;22.80;65.40;;;;;;4893804;29;20056;-84
2022/04/12 13:26:44;;;;;;;0.50;0.25;;;22.90;63.70;;;;;;4872376;29;20112;-85
2022/04/12 13:29:10;;;;;;;0.70;0.17;;;23.00;63.40;;;;;;4894750;29;20028;-85
2022/04/12 13:31:43;;;;;;;0.95;0.25;;;23.10;61.20;;;;;;4893527;29;20028;-85
2022/04/12 13:34:09;;;;;;;0.30;0.10;;;23.00;62.40;;;;;;4889548;29;20506;-87
2022/04/12 13:36:35;;;;;;;0.82;0.13;;;23.10;62.20;;;;;;4880065;29;20037;-85
2022/04/12 13:39:08;;;;;;;0.68;0.20;;;23.20;62.10;;;;;;4883353;29;20044;-86
2022/04/12 13:41:39;;;;;;;1.27;0.22;;;23.30;63.60;;;;;;4898485;29;20032;-85
2022/04/12 13:44:08;;;;;;;0.40;0.20;;;23.40;63.40;;;;;;4899925;29;20031;-85
2022/04/12 13:46:39;;;;;;;1.13;0.40;;;23.30;62.00;;;;;;4881911;29;20037;-85
2022/04/12 13:49:05;;;;;;;0.50;0.20;;;23.30;61.00;;;;;;4885957;29;20052;-86
2022/04/12 13:51:31;;;;;;;1.27;0.25;;;23.10;60.40;;;;;;4885072;29;20032;-86
2022/04/12 13:54:00;;;;;;;1.10;0.30;;;23.00;61.80;;;;;;4898912;29;20025;-86
2022/04/12 13:56:36;;;;;;;;;;;;;;;;;;;;;
2022/04/12 13:59:03;;;;;;;0.98;0.10;;;22.80;61.20;;;;;;4899341;29;20059;-86
2022/04/12 14:01:36;;;;;;;1.40;0.20;;;22.80;62.80;;;;;;4879513;29;20025;-86
2022/04/12 14:04:09;;;;;;;0.45;0.20;;;22.70;61.60;;;;;;4902028;29;20024;-86
2022/04/12 14:06:40;;;;;;;0.90;0.20;;;22.60;60.60;;;;;;4895577;29;20036;-86
2022/04/12 14:09:08;;;;;;;1.02;0.20;;;22.60;63.40;;;;;;4888700;29;20037;-88
2022/04/12 14:11:37;;;;;;;2.25;0.38;;;22.60;61.80;;;;;;4883423;29;20112;-85
2022/04/12 14:14:05;;;;;;;0.85;0.28;;;22.70;62.90;;;;;;4878225;29;20024;-86
2022/04/12 14:16:33;;;;;;;0.93;0.20;;;22.80;61.80;;;;;;4899500;29;20031;-86
2022/04/12 14:18:59;;;;;;;0.45;0.20;;;22.80;63.60;;;;;;4895236;29;20064;-87
2022/04/12 14:21:32;;;;;;;0.25;0.13;;;22.70;63.10;;;;;;4895335;29;20067;-87
2022/04/12 14:24:01;;;;;;;1.00;0.25;;;22.70;63.40;;;;;;4897334;29;20025;-88
2022/04/12 14:26:30;;;;;;;1.20;0.22;;;22.70;62.60;;;;;;4879762;29;20032;-87
2022/04/12 14:28:55;;;;;;;0.50;0.20;;;22.70;61.80;;;;;;4879517;29;20119;-85
2022/04/12 14:31:21;;;;;;;1.48;0.65;;;22.70;61.60;;;;;;4896513;29;20099;-85
2022/04/12 14:33:47;;;;;;;0.40;0.15;;;22.80;62.40;;;;;;4883163;29;20786;-84
2022/04/12 14:36:13;;;;;;;1.10;0.20;;;22.90;62.30;;;;;;4894691;29;20036;-84
2022/04/12 14:38:47;;;;;;;0.15;0.15;;;22.90;61.20;;;;;;4894659;29;20200;-84
2022/04/12 14:41:13;;;;;;;0.70;0.20;;;22.90;61.40;;;;;;4890779;29;20029;-84
2022/04/12 14:43:39;;;;;;;0.40;0.20;;;23.10;61.30;;;;;;4898410;29;20036;-84
2022/04/12 14:46:14;;;;;;;;;;;;;;;;;;;;;
2022/04/12 14:48:46;;;;;;;1.02;0.30;;;23.20;61.30;;;;;;4900669;29;20047;-84
2022/04/12 14:51:12;;;;;;;1.75;0.20;;;23.40;62.80;;;;;;4883038;29;20040;-84
2022/04/12 14:53:38;;;;;;;0.47;0.17;;;23.50;61.10;;;;;;4880941;29;20507;-84
2022/04/12 14:56:06;;;;;;;1.08;0.20;;;23.50;60.80;;;;;;4896693;29;20029;-84
2022/04/12 14:58:38;;;;;;;0.22;0.10;;;23.50;60.60;;;;;;4893825;29;20084;-85
2022/04/12 15:01:06;;;;;;;0.82;0.30;;;23.20;61.20;;;;;;4898204;29;20028;-86
2022/04/12 15:03:32;;;;;;;1.02;0.20;;;23.20;61.00;;;;;;4896200;29;20032;-86
2022/04/12 15:06:04;;;;;;;1.13;0.20;;;23.00;61.50;;;;;;4882530;29;20029;-85
2022/04/12 15:08:36;;;;;;;0.30;0.17;;;23.00;61.50;;;;;;4883594;29;20017;-86
2022/04/12 15:11:02;;;;;;;2.53;0.20;;;22.90;61.90;;;;;;4897698;29;20024;-86
2022/04/12 15:13:27;;;;;;;0.80;0.20;;;22.80;61.70;;;;;;4881685;29;20064;-87
2022/04/12 15:15:53;;;;;;;1.10;0.25;;;22.70;61.00;;;;;;4883546;29;20119;-87
2022/04/12 15:18:21;;;;;;;0.60;0.30;;;22.80;61.90;;;;;;4897929;29;20043;-87